Time;durP1;ratioP1;P1;durP2;ratioP2;P2;SDS_P1;SDS_P2;PMS_P1;PMS_P2;Temp;Humidity;BMP_temperature;BMP_pressure;BME280_temperature;BME280_humidity;BME280_pressure;Samples;Min_cycle;Max_cycle;Signal;HPM_P1;HPM_P2
2021/03/26 00:00:17;;;;;;;7.05;4.75;;;;;;;;;;5003711;28;20175;-78
2021/03/26 00:02:44;;;;;;;7.85;5.57;;;;;;;;;;5014216;28;20246;-78
2021/03/26 00:05:12;;;;;;;9.00;5.78;;;;;;;;;;5011723;28;20178;-78
2021/03/26 00:07:38;;;;;;;10.38;5.50;;;;;;;;;;5028971;28;20232;-79
2021/03/26 00:10:07;;;;;;;7.20;5.70;;;;;;;;;;5005430;28;20273;-78
2021/03/26 00:12:33;;;;;;;5.72;5.00;;;;;;;;;;5008657;28;20485;-78
2021/03/26 00:14:59;;;;;;;7.70;5.90;;;;;;;;;;5005126;28;20183;-78
2021/03/26 00:17:25;;;;;;;6.22;4.90;;;;;;;;;;5000157;28;20473;-78
2021/03/26 00:19:51;;;;;;;7.60;5.43;;;;;;;;;;5011109;28;20617;-77
2021/03/26 00:22:17;;;;;;;7.30;5.00;;;;;;;;;;4998956;28;20191;-78
2021/03/26 00:24:43;;;;;;;11.03;5.60;;;;;;;;;;4995554;28;20183;-79
2021/03/26 00:27:09;;;;;;;8.77;5.43;;;;;;;;;;5004251;28;20434;-77
2021/03/26 00:29:35;;;;;;;6.95;5.32;;;;;;;;;;5020242;28;20187;-78
2021/03/26 00:32:01;;;;;;;10.13;5.95;;;;;;;;;;4999852;28;20584;-78
2021/03/26 00:34:28;;;;;;;7.63;5.45;;;;;;;;;;5003866;28;20203;-78
2021/03/26 00:36:54;;;;;;;8.40;6.28;;;;;;;;;;4998413;28;20609;-78
2021/03/26 00:39:20;;;;;;;6.72;4.80;;;;;;;;;;5008860;28;20684;-78
2021/03/26 00:41:46;;;;;;;9.30;5.82;;;;;;;;;;5005264;28;20179;-78
2021/03/26 00:44:12;;;;;;;9.25;5.20;;;;;;;;;;5009231;28;20175;-78
2021/03/26 00:46:39;;;;;;;8.30;4.90;;;;;;;;;;5012828;28;20178;-78
2021/03/26 00:49:05;;;;;;;7.50;5.32;;;;;;;;;;5005501;28;20190;-78
2021/03/26 00:51:31;;;;;;;7.40;5.07;;;;;;;;;;5007998;28;20195;-78
2021/03/26 00:53:57;;;;;;;9.02;4.50;;;;;;;;;;5014474;28;20191;-78
2021/03/26 00:56:23;;;;;;;7.68;4.40;;;;;;;;;;5010545;28;20190;-78
2021/03/26 00:58:49;;;;;;;10.02;5.22;;;;;;;;;;5001298;28;20538;-78
2021/03/26 01:01:15;;;;;;;7.07;5.32;;;;;;;;;;5018153;28;20186;-78
2021/03/26 01:03:41;;;;;;;9.35;4.72;;;;;;;;;;5006375;28;20215;-78
2021/03/26 01:06:08;;;;;;;7.97;4.80;;;;;;;;;;5004011;28;20190;-78
2021/03/26 01:08:34;;;;;;;8.98;4.90;;;;;;;;;;5001176;28;20439;-78
2021/03/26 01:11:04;;;;;;;7.00;4.55;;;;;;;;;;4997783;28;20218;-78
2021/03/26 01:13:30;;;;;;;13.50;5.30;;;;;;;;;;5010539;28;20707;-78
2021/03/26 01:15:56;;;;;;;8.38;5.13;;;;;;;;;;4995008;28;20198;-78
2021/03/26 01:18:34;;;;;;;7.63;4.80;;;;;;;;;;5000213;28;20207;-78
2021/03/26 01:21:00;;;;;;;6.25;4.13;;;;;;;;;;5002695;28;20225;-79
2021/03/26 01:23:27;;;;;;;8.20;4.50;;;;;;;;;;5025208;28;20787;-79
2021/03/26 01:25:53;;;;;;;7.47;4.28;;;;;;;;;;5012364;28;20262;-79
2021/03/26 01:28:20;;;;;;;5.22;4.28;;;;;;;;;;5011407;28;20186;-79
2021/03/26 01:30:47;;;;;;;5.93;4.68;;;;;;;;;;5003076;28;20216;-79
2021/03/26 01:33:13;;;;;;;5.05;3.97;;;;;;;;;;5000734;28;20184;-78
2021/03/26 01:35:39;;;;;;;4.38;3.72;;;;;;;;;;5008102;28;20187;-78
2021/03/26 01:38:06;;;;;;;8.70;4.10;;;;;;;;;;4998363;28;20171;-78
2021/03/26 01:40:37;;;;;;;5.57;3.75;;;;;;;;;;5002695;28;20182;-79
2021/03/26 01:43:15;;;;;;;6.15;4.22;;;;;;;;;;5000710;28;20278;-79
2021/03/26 01:45:41;;;;;;;5.97;4.07;;;;;;;;;;5002723;28;20186;-79
2021/03/26 01:48:08;;;;;;;6.30;4.10;;;;;;;;;;4998201;28;20180;-79
2021/03/26 01:50:35;;;;;;;4.55;4.07;;;;;;;;;;5003648;28;20187;-79
2021/03/26 01:53:01;;;;;;;5.40;3.72;;;;;;;;;;4995404;28;20179;-78
2021/03/26 01:55:31;;;;;;;7.18;4.10;;;;;;;;;;4999825;28;20229;-79
2021/03/26 01:57:57;;;;;;;5.22;4.25;;;;;;;;;;5001060;28;20183;-79
2021/03/26 02:00:26;;;;;;;5.15;3.60;;;;;;;;;;5000989;28;20183;-79
2021/03/26 02:02:53;;;;;;;6.95;4.25;;;;;;;;;;5013202;28;20210;-79
2021/03/26 02:05:23;;;;;;;5.00;3.63;;;;;;;;;;5011981;28;20187;-79
2021/03/26 02:07:49;;;;;;;4.60;3.72;;;;;;;;;;5009238;28;20259;-78
2021/03/26 02:10:15;;;;;;;8.38;3.97;;;;;;;;;;5012644;28;20186;-78
2021/03/26 02:12:41;;;;;;;5.45;3.65;;;;;;;;;;5004489;28;20227;-79
2021/03/26 02:15:10;;;;;;;4.95;3.80;;;;;;;;;;5013167;28;20238;-79
2021/03/26 02:17:39;;;;;;;5.03;3.90;;;;;;;;;;5023908;28;20233;-78
2021/03/26 02:20:27;;;;;;;5.07;3.25;;;;;;;;;;4996108;28;20229;-78
2021/03/26 02:22:55;;;;;;;6.45;3.90;;;;;;;;;;5009656;28;20193;-79
2021/03/26 02:25:22;;;;;;;4.45;3.92;;;;;;;;;;5005268;28;20254;-79
2021/03/26 02:27:49;;;;;;;8.68;4.30;;;;;;;;;;5002693;28;20183;-79
2021/03/26 02:30:27;;;;;;;5.20;3.63;;;;;;;;;;5000986;28;20262;-79
2021/03/26 02:32:53;;;;;;;6.72;3.15;;;;;;;;;;5002221;28;20191;-79
2021/03/26 02:35:31;;;;;;;4.80;3.15;;;;;;;;;;4996834;28;20642;-78
2021/03/26 02:38:14;;;;;;;4.82;3.60;;;;;;;;;;5000521;28;20571;-79
2021/03/26 02:40:49;;;;;;;3.13;2.90;;;;;;;;;;5001455;28;20179;-79
2021/03/26 02:43:15;;;;;;;3.72;2.70;;;;;;;;;;5006939;28;20194;-79
2021/03/26 02:45:45;;;;;;;5.80;3.83;;;;;;;;;;5007200;28;20183;-79
2021/03/26 02:48:15;;;;;;;6.75;3.40;;;;;;;;;;4995890;28;20183;-79
2021/03/26 02:50:44;;;;;;;4.38;3.92;;;;;;;;;;5000491;28;20249;-79
2021/03/26 02:53:13;;;;;;;4.25;3.38;;;;;;;;;;5006595;28;20232;-79
2021/03/26 02:56:02;;;;;;;4.13;2.97;;;;;;;;;;5011167;28;20178;-78
2021/03/26 02:58:34;;;;;;;5.75;2.80;;;;;;;;;;5004770;28;20202;-78
2021/03/26 03:01:26;;;;;;;3.50;3.00;;;;;;;;;;5003454;28;20184;-79
2021/03/26 03:03:55;;;;;;;4.72;3.67;;;;;;;;;;4961883;28;20276;-79
2021/03/26 03:06:24;;;;;;;3.38;2.90;;;;;;;;;;4962163;28;20196;-79
2021/03/26 03:08:51;;;;;;;7.95;3.50;;;;;;;;;;4961742;28;20197;-78
2021/03/26 03:11:27;;;;;;;4.25;3.38;;;;;;;;;;4961239;28;20339;-79
2021/03/26 03:13:59;;;;;;;4.50;2.95;;;;;;;;;;4958573;29;20203;-79
2021/03/26 03:16:31;;;;;;;5.38;3.20;;;;;;;;;;4957422;29;20664;-78
2021/03/26 03:19:02;;;;;;;6.68;3.45;;;;;;;;;;4962134;28;20212;-78
2021/03/26 03:21:28;;;;;;;5.32;2.97;;;;;;;;;;4942316;29;20204;-79
2021/03/26 03:23:58;;;;;;;5.93;2.90;;;;;;;;;;4961518;28;20251;-79
2021/03/26 03:26:34;;;;;;;4.85;2.72;;;;;;;;;;4956727;28;20435;-79
2021/03/26 03:29:08;;;;;;;6.03;3.28;;;;;;;;;;4959255;28;20184;-79
2021/03/26 03:31:42;;;;;;;5.57;3.45;;;;;;;;;;4957628;29;20679;-78
2021/03/26 03:34:10;;;;;;;4.15;2.95;;;;;;;;;;4961915;28;20196;-77
2021/03/26 03:37:05;;;;;;;7.82;3.53;;;;;;;;;;4961586;28;20263;-78
2021/03/26 03:39:36;;;;;;;4.18;3.63;;;;;;;;;;4957958;28;20625;-79
2021/03/26 03:42:06;;;;;;;3.15;2.85;;;;;;;;;;5016126;28;20182;-79
2021/03/26 03:44:39;;;;;;;3.20;2.72;;;;;;;;;;5008309;28;20187;-79
2021/03/26 03:47:11;;;;;;;6.10;4.32;;;;;;;;;;5002755;28;20183;-79
2021/03/26 03:49:37;;;;;;;3.25;2.97;;;;;;;;;;5012447;28;20179;-79
2021/03/26 03:52:11;;;;;;;3.73;3.20;;;;;;;;;;5005090;28;20201;-78
2021/03/26 03:54:40;;;;;;;6.18;3.38;;;;;;;;;;5006875;28;20435;-79
2021/03/26 03:57:18;;;;;;;6.25;2.85;;;;;;;;;;5004031;28;20196;-79
2021/03/26 03:59:53;;;;;;;4.25;3.05;;;;;;;;;;5014155;28;20241;-79
2021/03/26 04:02:22;;;;;;;5.03;2.70;;;;;;;;;;5000474;28;20190;-79
2021/03/26 04:04:54;;;;;;;6.93;3.00;;;;;;;;;;5005824;28;20320;-79
2021/03/26 04:07:29;;;;;;;6.55;3.25;;;;;;;;;;5000270;28;20183;-79
2021/03/26 04:10:01;;;;;;;4.35;3.05;;;;;;;;;;5000787;28;20191;-79
2021/03/26 04:12:35;;;;;;;3.67;3.00;;;;;;;;;;5001915;28;20641;-78
2021/03/26 04:15:08;;;;;;;4.45;2.92;;;;;;;;;;5004121;28;20188;-78
2021/03/26 04:17:46;;;;;;;3.95;2.70;;;;;;;;;;5025653;28;20194;-78
2021/03/26 04:20:17;;;;;;;3.45;2.97;;;;;;;;;;5005918;28;20222;-79
2021/03/26 04:22:46;;;;;;;7.45;3.25;;;;;;;;;;5013792;28;20668;-79
2021/03/26 04:25:21;;;;;;;6.90;2.95;;;;;;;;;;5006161;28;20206;-79
2021/03/26 04:27:50;;;;;;;5.65;3.60;;;;;;;;;;5007425;28;20554;-79
2021/03/26 04:30:42;;;;;;;3.15;2.85;;;;;;;;;;5009461;28;20641;-79
2021/03/26 04:33:08;;;;;;;10.95;3.35;;;;;;;;;;4990289;28;20231;-79
2021/03/26 04:35:35;;;;;;;5.80;2.92;;;;;;;;;;5027317;28;20673;-79
2021/03/26 04:38:40;;;;;;;4.88;3.20;;;;;;;;;;5011094;28;20241;-79
2021/03/26 04:41:21;;;;;;;8.73;3.55;;;;;;;;;;4993958;28;20222;-79
2021/03/26 04:44:06;;;;;;;4.18;3.30;;;;;;;;;;4977882;28;20198;-79
2021/03/26 04:46:32;;;;;;;4.25;3.10;;;;;;;;;;4960485;28;20193;-79
2021/03/26 04:49:02;;;;;;;4.67;4.27;;;;;;;;;;4978209;28;20217;-79
2021/03/26 04:51:32;;;;;;;4.15;3.13;;;;;;;;;;4978438;28;20457;-79
2021/03/26 04:53:58;;;;;;;4.85;3.38;;;;;;;;;;4988946;28;20188;-79
2021/03/26 04:56:27;;;;;;;5.45;3.45;;;;;;;;;;4983571;28;20935;-78
2021/03/26 04:58:59;;;;;;;3.80;3.40;;;;;;;;;;4984309;28;20239;-79
2021/03/26 05:01:26;;;;;;;7.38;4.00;;;;;;;;;;4984258;28;20246;-78
2021/03/26 05:04:06;;;;;;;3.72;3.28;;;;;;;;;;4966436;28;20184;-79
2021/03/26 05:06:33;;;;;;;4.40;3.15;;;;;;;;;;4985106;28;20192;-79
2021/03/26 05:09:01;;;;;;;4.28;2.90;;;;;;;;;;4993389;28;20232;-78
2021/03/26 05:11:28;;;;;;;4.25;3.53;;;;;;;;;;4995346;28;20295;-79
2021/03/26 05:13:58;;;;;;;6.55;3.83;;;;;;;;;;5009939;28;20182;-79
2021/03/26 05:16:27;;;;;;;3.97;3.15;;;;;;;;;;5016824;28;20193;-79
2021/03/26 05:19:04;;;;;;;3.30;2.72;;;;;;;;;;5006960;28;20278;-79
2021/03/26 05:21:33;;;;;;;6.80;3.42;;;;;;;;;;5007208;28;20190;-79
2021/03/26 05:24:01;;;;;;;3.03;2.83;;;;;;;;;;5015371;28;20214;-79
2021/03/26 05:26:28;;;;;;;5.40;3.47;;;;;;;;;;5014898;28;20183;-79
2021/03/26 05:28:54;;;;;;;5.97;2.95;;;;;;;;;;5000582;28;20182;-79
2021/03/26 05:31:28;;;;;;;4.97;3.60;;;;;;;;;;5000328;28;20340;-78
2021/03/26 05:33:57;;;;;;;3.00;2.65;;;;;;;;;;5000040;28;20211;-78
2021/03/26 05:36:32;;;;;;;5.28;3.55;;;;;;;;;;5003113;28;20210;-78
2021/03/26 05:39:04;;;;;;;5.75;2.88;;;;;;;;;;5015171;28;20253;-78
2021/03/26 05:41:45;;;;;;;4.20;3.13;;;;;;;;;;5010651;28;20238;-79
2021/03/26 05:44:30;;;;;;;4.93;2.90;;;;;;;;;;5007815;28;20242;-79
2021/03/26 05:46:59;;;;;;;4.97;3.60;;;;;;;;;;5003296;28;20460;-78
2021/03/26 05:49:40;;;;;;;4.90;3.15;;;;;;;;;;5005614;28;20182;-78
2021/03/26 05:52:22;;;;;;;6.15;3.20;;;;;;;;;;5005692;28;20606;-78
2021/03/26 05:55:15;;;;;;;9.70;3.17;;;;;;;;;;5005180;28;20356;-78
2021/03/26 05:58:00;;;;;;;10.35;3.85;;;;;;;;;;5012038;28;20286;-78
2021/03/26 06:00:41;;;;;;;8.57;3.80;;;;;;;;;;5000000;28;20195;-78
2021/03/26 06:03:26;;;;;;;6.68;3.80;;;;;;;;;;4991531;28;20259;-78
2021/03/26 06:06:03;;;;;;;4.55;3.15;;;;;;;;;;5002672;28;20266;-78
2021/03/26 06:08:48;;;;;;;7.45;3.92;;;;;;;;;;4999212;28;20189;-78
2021/03/26 06:11:17;;;;;;;4.38;3.65;;;;;;;;;;4998176;28;20225;-78
2021/03/26 06:13:43;;;;;;;6.30;3.65;;;;;;;;;;5000117;28;20192;-78
2021/03/26 06:16:18;;;;;;;6.88;3.65;;;;;;;;;;5015849;28;20178;-78
2021/03/26 06:18:50;;;;;;;5.63;3.40;;;;;;;;;;5004747;28;20210;-78
2021/03/26 06:21:35;;;;;;;10.43;4.15;;;;;;;;;;5010535;28;20264;-79
2021/03/26 06:24:01;;;;;;;4.25;3.30;;;;;;;;;;5028050;28;20183;-78
2021/03/26 06:26:46;;;;;;;5.97;3.70;;;;;;;;;;5009460;28;20185;-78
2021/03/26 06:29:12;;;;;;;4.97;2.75;;;;;;;;;;4996908;28;20428;-78
2021/03/26 06:31:57;;;;;;;4.68;3.55;;;;;;;;;;5010812;28;20209;-77
2021/03/26 06:34:42;;;;;;;4.00;3.60;;;;;;;;;;5000082;28;20249;-78
2021/03/26 06:37:08;;;;;;;10.20;3.95;;;;;;;;;;4999803;28;20187;-78
2021/03/26 06:39:50;;;;;;;11.80;4.07;;;;;;;;;;4999400;28;20209;-78
2021/03/26 06:42:26;;;;;;;5.55;3.35;;;;;;;;;;5006548;28;20425;-78
2021/03/26 06:45:11;;;;;;;8.65;3.45;;;;;;;;;;5002239;28;20246;-78
2021/03/26 06:47:40;;;;;;;4.38;3.45;;;;;;;;;;5001402;28;20183;-78
2021/03/26 06:50:06;;;;;;;7.90;3.80;;;;;;;;;;5000322;28;20191;-79
2021/03/26 06:52:52;;;;;;;3.80;3.10;;;;;;;;;;5021365;28;20182;-78
2021/03/26 06:55:37;;;;;;;6.40;3.42;;;;;;;;;;4998110;28;20179;-79
2021/03/26 06:58:22;;;;;;;4.93;2.95;;;;;;;;;;5002520;28;20603;-79
2021/03/26 07:00:54;;;;;;;4.22;3.70;;;;;;;;;;5003386;28;20171;-79
2021/03/26 07:03:38;;;;;;;7.28;3.75;;;;;;;;;;5006336;28;20191;-80
2021/03/26 07:06:23;;;;;;;5.82;3.50;;;;;;;;;;4992586;28;20179;-79
2021/03/26 07:09:06;;;;;;;3.75;3.38;;;;;;;;;;5026354;28;20191;-79
2021/03/26 07:11:42;;;;;;;7.18;4.15;;;;;;;;;;5009994;28;20230;-79
2021/03/26 07:14:16;;;;;;;8.07;3.78;;;;;;;;;;5008078;28;20647;-78
2021/03/26 07:16:42;;;;;;;6.72;3.35;;;;;;;;;;5009831;28;20182;-79
2021/03/26 07:19:27;;;;;;;5.70;3.33;;;;;;;;;;5006623;28;20206;-79
2021/03/26 07:22:08;;;;;;;6.93;3.78;;;;;;;;;;5002562;28;20430;-79
2021/03/26 07:24:50;;;;;;;8.32;4.03;;;;;;;;;;5001238;28;20187;-79
2021/03/26 07:27:21;;;;;;;5.40;3.90;;;;;;;;;;4998184;28;20198;-79
2021/03/26 07:29:47;;;;;;;10.75;5.07;;;;;;;;;;5020741;28;20179;-79
2021/03/26 07:32:19;;;;;;;4.50;3.90;;;;;;;;;;5010137;28;20206;-79
2021/03/26 07:34:51;;;;;;;10.68;3.83;;;;;;;;;;5015390;28;21005;-79
2021/03/26 07:37:36;;;;;;;9.00;4.10;;;;;;;;;;5008429;28;20190;-79
2021/03/26 07:40:21;;;;;;;6.57;4.60;;;;;;;;;;5008272;28;20217;-79
2021/03/26 07:43:05;;;;;;;4.70;3.50;;;;;;;;;;5007298;28;20238;-79
2021/03/26 07:45:46;;;;;;;6.82;4.05;;;;;;;;;;5006399;28;20250;-80
2021/03/26 07:48:23;;;;;;;3.78;3.10;;;;;;;;;;5003292;28;20426;-79
2021/03/26 07:50:50;;;;;;;8.38;4.07;;;;;;;;;;4998091;28;20322;-80
2021/03/26 07:53:20;;;;;;;4.65;3.65;;;;;;;;;;5002084;28;20655;-80
2021/03/26 07:55:55;;;;;;;9.00;5.35;;;;;;;;;;5005429;28;20184;-80
2021/03/26 07:58:32;;;;;;;9.68;5.22;;;;;;;;;;5002679;28;20238;-80
2021/03/26 08:01:28;;;;;;;5.75;4.72;;;;;;;;;;5003471;28;20214;-81
2021/03/26 08:03:54;;;;;;;6.10;3.15;;;;;;;;;;4990053;28;20469;-80
2021/03/26 08:06:55;;;;;;;4.93;3.22;;;;;;;;;;5001425;28;20238;-80
2021/03/26 08:09:37;;;;;;;8.55;2.63;;;;;;;;;;4964800;28;20200;-81
2021/03/26 08:12:05;;;;;;;3.47;2.50;;;;;;;;;;4960047;28;20228;-80
2021/03/26 08:14:46;;;;;;;4.30;2.33;;;;;;;;;;4958136;28;20212;-80
2021/03/26 08:17:41;;;;;;;9.48;2.85;;;;;;;;;;4950221;28;20209;-80
2021/03/26 08:20:26;;;;;;;3.30;2.90;;;;;;;;;;4908070;29;20256;-80
2021/03/26 08:23:10;;;;;;;4.50;2.45;;;;;;;;;;4908487;29;20183;-80
2021/03/26 08:25:42;;;;;;;2.83;1.95;;;;;;;;;;4893962;29;20254;-80
2021/03/26 08:28:27;;;;;;;5.60;2.70;;;;;;;;;;4895159;29;20178;-82
2021/03/26 08:31:11;;;;;;;4.40;1.98;;;;;;;;;;4912197;29;20202;-81
2021/03/26 08:34:00;;;;;;;5.20;1.98;;;;;;;;;;4896507;29;20195;-79
2021/03/26 08:36:31;;;;;;;3.38;2.85;;;;;;;;;;4895168;29;20253;-81
2021/03/26 08:39:12;;;;;;;3.40;2.30;;;;;;;;;;4916129;29;20203;-80
2021/03/26 08:41:44;;;;;;;3.35;2.03;;;;;;;;;;4904278;29;20230;-80
2021/03/26 08:44:18;;;;;;;4.40;2.63;;;;;;;;;;4931820;29;20260;-81
2021/03/26 08:46:45;;;;;;;4.07;2.25;;;;;;;;;;4928911;29;20189;-81
2021/03/26 08:49:26;;;;;;;5.43;2.10;;;;;;;;;;4944339;29;20197;-81
2021/03/26 08:52:12;;;;;;;2.05;1.67;;;;;;;;;;4923739;29;20194;-82
2021/03/26 08:54:57;;;;;;;2.42;2.00;;;;;;;;;;4939574;29;20185;-82
2021/03/26 08:57:27;;;;;;;3.97;1.90;;;;;;;;;;4991039;28;20208;-81
2021/03/26 09:00:06;;;;;;;3.65;1.95;;;;;;;;;;5013723;28;20203;-81
2021/03/26 09:02:56;;;;;;;3.65;2.35;;;;;;;;;;5014429;28;20218;-85
2021/03/26 09:05:34;;;;;;;7.78;2.55;;;;;;;;;;5009904;28;20203;-79
2021/03/26 09:08:01;;;;;;;4.85;2.72;;;;;;;;;;5001739;28;20180;-82
2021/03/26 09:11:01;;;;;;;2.15;1.67;;;;;;;;;;4998803;28;20198;-80
2021/03/26 09:13:46;;;;;;;3.53;2.08;;;;;;;;;;5011108;28;20206;-84
2021/03/26 09:16:16;;;;;;;4.80;2.15;;;;;;;;;;5001299;28;20186;-82
2021/03/26 09:18:45;;;;;;;3.72;2.67;;;;;;;;;;5010444;28;20667;-81
2021/03/26 09:21:23;;;;;;;2.22;1.65;;;;;;;;;;5005091;28;20198;-81
2021/03/26 09:23:55;;;;;;;5.60;2.10;;;;;;;;;;4994799;28;20444;-82
2021/03/26 09:26:31;;;;;;;4.00;1.70;;;;;;;;;;5003135;28;20183;-80
2021/03/26 09:28:58;;;;;;;4.50;1.98;;;;;;;;;;5012810;28;20190;-80
2021/03/26 09:31:33;;;;;;;4.25;2.03;;;;;;;;;;5001225;28;20362;-79
2021/03/26 09:34:00;;;;;;;2.97;2.30;;;;;;;;;;4999226;28;20201;-77
2021/03/26 09:36:28;;;;;;;2.90;2.10;;;;;;;;;;4999457;28;20191;-81
2021/03/26 09:39:09;;;;;;;3.55;2.83;;;;;;;;;;5000279;28;20210;-80
2021/03/26 09:41:51;;;;;;;6.55;2.50;;;;;;;;;;5002816;28;20706;-82
2021/03/26 09:44:40;;;;;;;3.45;2.20;;;;;;;;;;5009562;28;20329;-80
2021/03/26 09:47:12;;;;;;;2.75;2.20;;;;;;;;;;5003870;28;20201;-83
2021/03/26 09:49:39;;;;;;;5.00;1.85;;;;;;;;;;5005002;28;20179;-81
2021/03/26 09:52:24;;;;;;;2.05;1.80;;;;;;;;;;5003896;28;20197;-79
2021/03/26 09:54:52;;;;;;;2.20;1.30;;;;;;;;;;4993090;28;20664;-80
2021/03/26 09:57:30;;;;;;;4.03;1.50;;;;;;;;;;5004670;28;20251;-79
2021/03/26 10:00:13;;;;;;;1.60;1.48;;;;;;;;;;5003483;28;20253;-85
2021/03/26 10:02:53;;;;;;;3.55;1.63;;;;;;;;;;5012680;28;20219;-81
2021/03/26 10:05:31;;;;;;;6.07;2.35;;;;;;;;;;5012312;28;20318;-81
2021/03/26 10:08:30;;;;;;;2.97;1.67;;;;;;;;;;5000528;28;20212;-78
2021/03/26 10:10:52;;;;;;;4.45;1.45;;;;;;;;;;5008999;28;20249;-79
2021/03/26 10:13:22;;;;;;;2.63;1.58;;;;;;;;;;5000663;28;20182;-81
2021/03/26 10:15:59;;;;;;;2.58;1.40;;;;;;;;;;4996220;28;20191;-79
2021/03/26 10:18:36;;;;;;;1.33;1.13;;;;;;;;;;5003928;28;20254;-83
2021/03/26 10:21:02;;;;;;;2.20;1.40;;;;;;;;;;5007921;28;20186;-82
2021/03/26 10:23:30;;;;;;;2.03;1.37;;;;;;;;;;5000632;28;20745;-82
2021/03/26 10:25:58;;;;;;;4.35;1.60;;;;;;;;;;4988891;28;20470;-82
2021/03/26 10:28:30;;;;;;;3.00;1.60;;;;;;;;;;5000269;28;20210;-85
2021/03/26 10:31:16;;;;;;;1.55;1.38;;;;;;;;;;4999782;28;20195;-85
2021/03/26 10:33:51;;;;;;;2.63;1.55;;;;;;;;;;5010958;28;20187;-82
2021/03/26 10:36:17;;;;;;;3.55;1.35;;;;;;;;;;4997275;28;20186;-80
2021/03/26 10:38:43;;;;;;;2.63;1.30;;;;;;;;;;4977341;28;20229;-81
2021/03/26 10:41:15;;;;;;;3.40;1.42;;;;;;;;;;5002151;28;20450;-80
2021/03/26 10:43:44;;;;;;;1.80;1.40;;;;;;;;;;5001684;28;20207;-81
2021/03/26 10:46:15;;;;;;;3.35;1.60;;;;;;;;;;4986786;28;20189;-76
2021/03/26 10:48:59;;;;;;;3.45;1.55;;;;;;;;;;4995909;28;20692;-84
2021/03/26 10:51:43;;;;;;;2.67;1.50;;;;;;;;;;4994829;28;20301;-85
2021/03/26 10:54:22;;;;;;;2.80;1.40;;;;;;;;;;4997747;28;20190;-82
2021/03/26 10:56:51;;;;;;;2.03;1.60;;;;;;;;;;4997796;28;20672;-82
2021/03/26 10:59:20;;;;;;;4.30;1.77;;;;;;;;;;5003593;28;20262;-82
2021/03/26 11:01:49;;;;;;;3.38;1.30;;;;;;;;;;4999675;28;20590;-79
2021/03/26 11:04:23;;;;;;;3.97;2.08;;;;;;;;;;4998597;28;20176;-83
2021/03/26 11:06:56;;;;;;;2.20;1.40;;;;;;;;;;4999711;28;20293;-81
2021/03/26 11:09:33;;;;;;;3.35;1.60;;;;;;;;;;5003900;28;20202;-82
2021/03/26 11:12:13;;;;;;;2.47;1.70;;;;;;;;;;5004595;28;20696;-82
2021/03/26 11:14:43;;;;;;;2.83;1.60;;;;;;;;;;5018135;28;20198;-80
2021/03/26 11:17:09;;;;;;;2.90;1.70;;;;;;;;;;5010244;28;20188;-79
2021/03/26 11:19:38;;;;;;;1.80;1.33;;;;;;;;;;4998398;28;20218;-81
2021/03/26 11:22:04;;;;;;;2.00;1.33;;;;;;;;;;5003152;28;20241;-82
2021/03/26 11:24:44;;;;;;;1.80;1.30;;;;;;;;;;4999240;28;20191;-81
2021/03/26 11:27:24;;;;;;;3.05;1.40;;;;;;;;;;5004630;28;20448;-82
2021/03/26 11:30:10;;;;;;;1.30;1.20;;;;;;;;;;4991132;28;20242;-84
2021/03/26 11:32:38;;;;;;;1.80;1.20;;;;;;;;;;5007140;28;20237;-81
2021/03/26 11:35:12;;;;;;;2.05;1.25;;;;;;;;;;5015541;28;20181;-82
2021/03/26 11:37:42;;;;;;;2.65;1.55;;;;;;;;;;5005185;28;20226;-84
2021/03/26 11:40:08;;;;;;;4.25;1.23;;;;;;;;;;5009148;28;20216;-78
2021/03/26 11:42:34;;;;;;;3.00;1.40;;;;;;;;;;5008073;28;20497;-82
2021/03/26 11:45:09;;;;;;;2.40;1.40;;;;;;;;;;5005104;28;20193;-81
2021/03/26 11:47:40;;;;;;;1.83;1.10;;;;;;;;;;5006742;28;20209;-82
2021/03/26 11:50:19;;;;;;;1.58;1.30;;;;;;;;;;5015440;28;20200;-82
2021/03/26 11:52:46;;;;;;;1.80;1.13;;;;;;;;;;5013623;28;20181;-83
2021/03/26 11:55:29;;;;;;;4.70;1.33;;;;;;;;;;4999061;28;20424;-80
2021/03/26 11:58:01;;;;;;;2.17;1.40;;;;;;;;;;4998372;28;20190;-83
2021/03/26 12:00:27;;;;;;;2.00;1.15;;;;;;;;;;5009834;28;20209;-78
2021/03/26 12:02:59;;;;;;;1.33;1.10;;;;;;;;;;5001341;28;20190;-78
2021/03/26 12:05:25;;;;;;;3.28;1.20;;;;;;;;;;5000682;28;20797;-84
2021/03/26 12:08:00;;;;;;;2.00;1.20;;;;;;;;;;5002260;28;20183;-79
2021/03/26 12:10:32;;;;;;;1.10;1.00;;;;;;;;;;5001247;28;20187;-79
2021/03/26 12:13:05;;;;;;;1.90;1.10;;;;;;;;;;5007339;28;20233;-80
2021/03/26 12:15:42;;;;;;;1.70;1.20;;;;;;;;;;5004402;28;20203;-83
2021/03/26 12:18:23;;;;;;;2.80;1.15;;;;;;;;;;4989089;28;20225;-85
2021/03/26 12:20:50;;;;;;;1.38;1.10;;;;;;;;;;5028966;28;20190;-80
2021/03/26 12:23:37;;;;;;;1.38;1.25;;;;;;;;;;5010898;28;20234;-80
2021/03/26 12:26:10;;;;;;;1.48;1.30;;;;;;;;;;5019935;28;20238;-78
2021/03/26 12:28:59;;;;;;;1.42;1.00;;;;;;;;;;5009362;28;20223;-86
2021/03/26 12:31:25;;;;;;;1.85;1.35;;;;;;;;;;4983739;28;20291;-83
2021/03/26 12:33:56;;;;;;;3.50;1.10;;;;;;;;;;4975671;28;20259;-81
2021/03/26 12:36:32;;;;;;;2.08;1.30;;;;;;;;;;4988049;28;20962;-85
2021/03/26 12:39:04;;;;;;;1.70;1.17;;;;;;;;;;4977682;28;20234;-82
2021/03/26 12:41:38;;;;;;;3.42;1.20;;;;;;;;;;4976651;28;20184;-81
2021/03/26 12:44:08;;;;;;;1.38;1.02;;;;;;;;;;4972393;28;20204;-81
2021/03/26 12:46:49;;;;;;;1.88;0.90;;;;;;;;;;4968478;28;20656;-81
2021/03/26 12:49:17;;;;;;;1.73;1.20;;;;;;;;;;4977932;28;20297;-78
2021/03/26 12:51:46;;;;;;;3.08;1.83;;;;;;;;;;4977794;28;20274;-82
2021/03/26 12:54:31;;;;;;;1.00;0.90;;;;;;;;;;4965855;28;20693;-80
2021/03/26 12:57:01;;;;;;;1.10;1.00;;;;;;;;;;4987884;28;20196;-84
2021/03/26 12:59:33;;;;;;;1.88;1.02;;;;;;;;;;4990328;28;20245;-82
2021/03/26 13:02:05;;;;;;;3.50;0.90;;;;;;;;;;4984003;28;20223;-79
2021/03/26 13:04:49;;;;;;;1.75;1.10;;;;;;;;;;4979125;28;20184;-77
2021/03/26 13:07:26;;;;;;;1.75;0.95;;;;;;;;;;4982509;28;20210;-83
2021/03/26 13:10:02;;;;;;;1.80;1.23;;;;;;;;;;5004922;28;20529;-83
2021/03/26 13:12:31;;;;;;;2.53;1.38;;;;;;;;;;5001150;28;20235;-84
2021/03/26 13:15:03;;;;;;;2.10;1.15;;;;;;;;;;5029547;28;20188;-80
2021/03/26 13:17:31;;;;;;;3.60;1.20;;;;;;;;;;5014340;28;20209;-83
2021/03/26 13:20:11;;;;;;;2.20;1.20;;;;;;;;;;5000714;28;20214;-83
2021/03/26 13:22:50;;;;;;;2.25;1.15;;;;;;;;;;4995968;28;20193;-82
2021/03/26 13:25:35;;;;;;;1.33;1.23;;;;;;;;;;4999411;28;20174;-79
2021/03/26 13:28:13;;;;;;;1.83;1.25;;;;;;;;;;4996792;28;20186;-85
2021/03/26 13:30:44;;;;;;;3.35;1.38;;;;;;;;;;5005898;28;20200;-79
2021/03/26 13:33:16;;;;;;;2.20;1.30;;;;;;;;;;5001385;28;20202;-79
2021/03/26 13:35:57;;;;;;;2.85;1.02;;;;;;;;;;5014851;28;20221;-83
2021/03/26 13:38:45;;;;;;;1.65;1.10;;;;;;;;;;5007815;28;20217;-81
2021/03/26 13:41:21;;;;;;;2.75;1.10;;;;;;;;;;5012645;28;20184;-83
2021/03/26 13:44:03;;;;;;;1.30;1.20;;;;;;;;;;5023409;28;20178;-81
2021/03/26 13:46:30;;;;;;;2.95;2.20;;;;;;;;;;5000966;28;20247;-84
2021/03/26 13:49:19;;;;;;;1.98;1.08;;;;;;;;;;4999153;28;20187;-80
2021/03/26 13:51:47;;;;;;;1.58;1.17;;;;;;;;;;4997283;28;20224;-84
2021/03/26 13:54:19;;;;;;;1.63;0.90;;;;;;;;;;5011633;28;20190;-79
2021/03/26 13:56:49;;;;;;;1.25;0.95;;;;;;;;;;5008960;28;20189;-80
2021/03/26 13:59:30;;;;;;;1.70;1.30;;;;;;;;;;5001189;28;20270;-82
2021/03/26 14:01:58;;;;;;;2.58;1.00;;;;;;;;;;5006371;28;20258;-83
2021/03/26 14:04:29;;;;;;;1.48;1.38;;;;;;;;;;5003117;28;20186;-79
2021/03/26 14:07:00;;;;;;;1.42;1.10;;;;;;;;;;5000885;28;20179;-81
2021/03/26 14:09:29;;;;;;;1.85;1.45;;;;;;;;;;5005397;28;20258;-83
2021/03/26 14:11:58;;;;;;;1.75;1.30;;;;;;;;;;4993467;28;20233;-85
2021/03/26 14:14:28;;;;;;;2.03;1.20;;;;;;;;;;4994122;28;20196;-84
2021/03/26 14:16:54;;;;;;;2.80;1.17;;;;;;;;;;5005357;28;20178;-79
2021/03/26 14:19:20;;;;;;;2.87;1.00;;;;;;;;;;4999805;28;20211;-81
2021/03/26 14:21:46;;;;;;;2.23;1.03;;;;;;;;;;4998730;28;20450;-81
2021/03/26 14:24:33;;;;;;;2.30;1.90;;;;;;;;;;5011580;28;20531;-80
2021/03/26 14:27:28;;;;;;;2.50;1.25;;;;;;;;;;5013645;28;20506;-82
2021/03/26 14:29:58;;;;;;;1.33;1.20;;;;;;;;;;4987497;28;20222;-80
2021/03/26 14:32:37;;;;;;;1.40;1.30;;;;;;;;;;5003309;28;20357;-80
2021/03/26 14:35:07;;;;;;;2.28;1.00;;;;;;;;;;5025859;28;20241;-80
2021/03/26 14:37:39;;;;;;;1.05;0.95;;;;;;;;;;5016529;28;20516;-83
2021/03/26 14:40:07;;;;;;;2.35;1.10;;;;;;;;;;5004774;28;20207;-83
2021/03/26 14:42:36;;;;;;;2.83;0.90;;;;;;;;;;5012505;28;20195;-81
2021/03/26 14:45:07;;;;;;;1.20;0.90;;;;;;;;;;5007750;28;20175;-77
2021/03/26 14:47:35;;;;;;;3.75;1.20;;;;;;;;;;5005717;28;20225;-80
2021/03/26 14:50:12;;;;;;;1.25;1.15;;;;;;;;;;4999174;28;20662;-80
2021/03/26 14:52:40;;;;;;;1.50;1.15;;;;;;;;;;4998204;28;20178;-83
2021/03/26 14:55:12;;;;;;;2.10;1.00;;;;;;;;;;4996183;28;20213;-81
2021/03/26 14:57:45;;;;;;;4.97;1.27;;;;;;;;;;4997824;28;20458;-79
2021/03/26 15:00:20;;;;;;;1.00;0.90;;;;;;;;;;4992283;28;20232;-83
2021/03/26 15:02:48;;;;;;;1.92;1.00;;;;;;;;;;5001613;28;20191;-80
2021/03/26 15:05:20;;;;;;;1.63;0.90;;;;;;;;;;4996131;28;20175;-82
2021/03/26 15:07:49;;;;;;;1.38;1.02;;;;;;;;;;5011144;28;20181;-82
2021/03/26 15:10:23;;;;;;;1.30;1.13;;;;;;;;;;5002959;28;20209;-84
2021/03/26 15:13:08;;;;;;;1.00;0.90;;;;;;;;;;4999313;28;20571;-80
2021/03/26 15:15:49;;;;;;;0.82;0.82;;;;;;;;;;5005796;28;20185;-85
2021/03/26 15:18:27;;;;;;;1.30;1.10;;;;;;;;;;5006252;28;20282;-82
2021/03/26 15:21:02;;;;;;;0.80;0.75;;;;;;;;;;5027157;28;20179;-79